createdAt,value
2022-08-26T06:46:44.328Z,54.59
2022-08-26T06:49:13.395Z,54.19
2022-08-26T06:51:41.448Z,53.69
2022-08-26T06:54:10.318Z,52.89
2022-08-26T06:56:41.782Z,53.18
2022-08-26T06:59:11.894Z,53.16
2022-08-26T07:01:46.757Z,52.37
2022-08-26T07:04:16.655Z,52.13
2022-08-26T07:06:53.561Z,52.06
2022-08-26T07:09:24.284Z,52.32
2022-08-26T07:11:53.745Z,51.10
2022-08-26T07:14:22.596Z,50.38
2022-08-26T07:16:51.141Z,50.72
2022-08-26T07:19:29.861Z,51.40
2022-08-26T07:22:04.024Z,50.24
2022-08-26T07:24:35.174Z,49.93
2022-08-26T07:27:06.530Z,49.28
2022-08-26T07:29:36.021Z,49.87
2022-08-26T07:32:04.789Z,49.77
2022-08-26T07:34:33.146Z,48.91
2022-08-26T07:37:01.557Z,48.69
2022-08-26T07:39:31.886Z,47.21
2022-08-26T07:42:07.600Z,46.77
2022-08-26T07:44:37.754Z,47.27
2022-08-26T07:47:10.568Z,47.43
2022-08-26T07:49:57.762Z,46.66
2022-08-26T07:52:30.428Z,45.07
2022-08-26T07:55:00.485Z,46.14
2022-08-26T07:57:30.989Z,45.80
2022-08-26T07:59:59.583Z,44.69
2022-08-26T08:02:29.206Z,45.10
2022-08-26T08:04:58.641Z,44.64
2022-08-26T08:07:38.698Z,44.41
2022-08-26T08:10:20.840Z,44.44
2022-08-26T08:12:50.122Z,44.93
2022-08-26T08:15:21.820Z,43.23
2022-08-26T08:17:51.482Z,43.42
2022-08-26T08:20:22.192Z,42.37
2022-08-26T08:22:52.836Z,42.48
2022-08-26T08:25:22.904Z,42.65
2022-08-26T08:27:51.279Z,41.36
2022-08-26T08:30:23.099Z,40.88
2022-08-26T08:32:52.500Z,40.20
2022-08-26T08:35:22.809Z,40.80
2022-08-26T08:37:54.362Z,39.81
2022-08-26T08:40:25.593Z,38.93
2022-08-26T08:43:06.525Z,40.17
2022-08-26T08:45:58.145Z,38.36
2022-08-26T08:48:32.250Z,37.97
2022-08-26T08:51:18.958Z,38.54
2022-08-26T08:53:49.729Z,37.95
2022-08-26T08:56:36.828Z,37.67
2022-08-26T08:59:14.305Z,38.67
2022-08-26T09:01:47.641Z,36.60
2022-08-26T09:04:58.142Z,38.33
2022-08-26T09:07:37.534Z,37.02
2022-08-26T09:10:05.761Z,35.98
2022-08-26T09:12:34.798Z,34.53
2022-08-26T09:15:18.972Z,34.57
2022-08-26T09:17:55.928Z,34.49
2022-08-26T09:20:23.921Z,34.75
2022-08-26T09:22:52.016Z,36.13
2022-08-26T09:25:20.359Z,34.53
2022-08-26T09:27:51.056Z,33.86
2022-08-26T09:30:26.872Z,33.67
2022-08-26T09:33:01.396Z,34.69
2022-08-26T09:35:33.626Z,33.26
2022-08-26T09:38:02.791Z,33.41
2022-08-26T09:40:36.350Z,32.19
2022-08-26T09:43:22.325Z,32.71
2022-08-26T09:46:17.707Z,33.10
2022-08-26T09:48:45.943Z,34.05
2022-08-26T09:51:23.385Z,34.23
2022-08-26T09:54:05.733Z,31.92
2022-08-26T09:56:38.753Z,31.01
2022-08-26T09:59:12.155Z,30.33
2022-08-26T10:01:45.288Z,30.42
2022-08-26T10:04:21.020Z,30.45
2022-08-26T10:07:01.994Z,30.53
2022-08-26T10:09:40.706Z,29.54
2022-08-26T10:12:16.020Z,29.77
2022-08-26T10:15:03.621Z,29.28
2022-08-26T10:17:38.393Z,28.64
2022-08-26T10:20:24.111Z,29.41
2022-08-26T10:23:23.308Z,28.64
2022-08-26T10:25:59.216Z,27.80
2022-08-26T10:28:37.303Z,26.89
2022-08-26T10:31:28.503Z,26.97
2022-08-26T10:34:00.388Z,26.18
2022-08-26T10:37:14.208Z,26.45
2022-08-26T10:39:51.860Z,25.69
2022-08-26T10:42:40.658Z,25.43
2022-08-26T10:45:15.119Z,25.90
2022-08-26T10:47:46.366Z,27.06
2022-08-26T10:50:19.037Z,27.14
2022-08-26T10:53:26.512Z,26.63
2022-08-26T10:56:15.681Z,26.65
2022-08-26T10:59:38.384Z,26.52
2022-08-26T11:02:37.160Z,26.15
2022-08-26T11:05:16.206Z,25.72
2022-08-26T11:07:48.551Z,25.38
2022-08-26T11:10:17.416Z,25.40
2022-08-26T11:12:49.171Z,24.61
2022-08-26T11:15:24.663Z,23.62
2022-08-26T11:17:52.863Z,23.94
2022-08-26T11:20:33.064Z,24.45
2022-08-26T11:23:13.343Z,24.33
2022-08-26T11:25:57.192Z,24.89
2022-08-26T11:28:45.629Z,25.27
2022-08-26T11:31:24.626Z,25.36
2022-08-26T11:34:07.233Z,24.84
2022-08-26T11:36:47.818Z,24.87
2022-08-26T11:39:52.669Z,23.94
2022-08-26T11:42:44.383Z,24.40
2022-08-26T11:45:24.597Z,25.12
2022-08-26T11:47:54.895Z,25.25
2022-08-26T11:50:26.727Z,25.11
2022-08-26T11:53:06.326Z,25.23
2022-08-26T11:55:41.950Z,25.54
2022-08-26T11:58:13.134Z,25.26
2022-08-26T12:00:45.700Z,24.85
2022-08-26T12:03:19.596Z,25.69
2022-08-26T12:05:50.104Z,25.99
2022-08-26T12:08:21.743Z,24.14
2022-08-26T12:10:49.774Z,24.81
2022-08-26T12:13:26.321Z,24.86
2022-08-26T12:15:58.284Z,24.91
2022-08-26T12:18:30.718Z,24.32
2022-08-26T12:21:16.649Z,24.70
2022-08-26T12:23:51.050Z,24.70
2022-08-26T12:26:30.075Z,25.12
2022-08-26T12:29:09.981Z,25.59
2022-08-26T12:31:49.935Z,25.01
2022-08-26T12:34:19.518Z,25.25
2022-08-26T12:36:55.660Z,24.94
2022-08-26T12:39:37.921Z,25.21
2022-08-26T12:42:24.263Z,25.30
2022-08-26T12:45:04.058Z,25.16
2022-08-26T12:47:43.961Z,25.32
2022-08-26T12:50:33.518Z,25.43
2022-08-26T12:53:10.361Z,24.65
2022-08-26T12:55:53.009Z,25.75
2022-08-26T12:58:25.977Z,26.32
2022-08-26T13:00:53.957Z,25.05
2022-08-26T13:03:31.050Z,25.06
2022-08-26T13:06:08.872Z,25.55
2022-08-26T13:08:53.098Z,27.18
2022-08-26T13:11:24.972Z,26.98
2022-08-26T13:14:15.868Z,26.73
2022-08-26T13:16:50.006Z,25.71
2022-08-26T13:19:25.458Z,25.13
2022-08-26T13:21:56.494Z,25.32
2022-08-26T13:24:38.713Z,25.87
2022-08-26T13:27:09.138Z,25.77
2022-08-26T13:29:37.204Z,25.39
2022-08-26T13:32:06.991Z,25.51
2022-08-26T13:34:36.876Z,25.17
2022-08-26T13:37:05.598Z,25.56
2022-08-26T13:39:33.829Z,25.46
2022-08-26T13:42:01.843Z,25.07
2022-08-26T13:44:29.796Z,25.54
2022-08-26T13:46:57.749Z,25.16
2022-08-26T13:49:25.751Z,24.52
2022-08-26T13:51:53.680Z,25.06
2022-08-26T13:54:22.035Z,25.43
2022-08-26T13:56:49.958Z,26.02
2022-08-26T13:59:17.982Z,26.12
2022-08-26T14:01:45.957Z,25.53
2022-08-26T14:04:14.016Z,26.19
2022-08-26T14:06:42.600Z,26.50
2022-08-26T14:09:11.435Z,26.47
2022-08-26T14:11:50.684Z,26.64
2022-08-26T14:14:22.898Z,26.02
2022-08-26T14:16:58.727Z,26.04
2022-08-26T14:19:31.360Z,25.35
2022-08-26T14:22:01.511Z,24.79
2022-08-26T14:24:30.255Z,25.21
2022-08-26T14:26:58.666Z,25.75
2022-08-26T14:29:26.929Z,26.41
2022-08-26T14:31:56.464Z,24.75
2022-08-26T14:34:25.327Z,24.94
2022-08-26T14:36:53.630Z,25.40
2022-08-26T14:39:22.389Z,25.18
2022-08-26T14:41:54.967Z,25.29
2022-08-26T14:44:30.626Z,25.16
2022-08-26T14:47:02.083Z,25.50
2022-08-26T14:49:31.546Z,25.47
2022-08-26T14:51:59.724Z,25.89
2022-08-26T14:54:29.670Z,26.02
2022-08-26T14:57:02.337Z,25.97
2022-08-26T14:59:40.238Z,25.45
2022-08-26T15:02:13.660Z,25.93
2022-08-26T15:04:51.114Z,25.33
2022-08-26T15:07:21.124Z,25.96
2022-08-26T15:09:50.044Z,25.32
2022-08-26T15:12:18.193Z,24.56
2022-08-26T15:14:51.776Z,25.25
2022-08-26T15:17:21.344Z,25.75
2022-08-26T15:19:54.539Z,27.92
2022-08-26T15:22:29.425Z,27.97
2022-08-26T15:24:59.843Z,27.20
2022-08-26T15:27:28.606Z,27.49
2022-08-26T15:29:56.852Z,29.15
2022-08-26T15:32:25.134Z,29.34
2022-08-26T15:34:53.345Z,28.43
2022-08-26T15:37:21.421Z,28.33
2022-08-26T15:39:49.673Z,29.34
2022-08-26T15:42:17.886Z,30.31
2022-08-26T15:44:46.744Z,29.47
2022-08-26T15:47:15.178Z,29.19
2022-08-26T15:49:43.951Z,29.92
2022-08-26T15:52:12.047Z,29.66
2022-08-26T15:54:40.150Z,28.13
2022-08-26T15:57:11.481Z,28.23
2022-08-26T15:59:41.310Z,28.92
2022-08-26T16:02:09.933Z,28.59
2022-08-26T16:04:38.071Z,27.55
2022-08-26T16:07:06.360Z,27.41
2022-08-26T16:09:34.669Z,28.80
2022-08-26T16:12:03.340Z,28.85
2022-08-26T16:14:31.465Z,29.26
2022-08-26T16:16:59.583Z,29.30
2022-08-26T16:19:27.655Z,29.57
2022-08-26T16:21:55.585Z,29.54
2022-08-26T16:24:28.409Z,30.34
2022-08-26T16:26:58.291Z,30.37
2022-08-26T16:29:27.307Z,30.49
2022-08-26T16:31:55.367Z,30.63
2022-08-26T16:34:23.857Z,31.09
2022-08-26T16:36:52.371Z,30.93
2022-08-26T16:39:20.384Z,31.37
2022-08-26T16:41:48.416Z,31.60
2022-08-26T16:44:16.935Z,31.85
2022-08-26T16:46:45.916Z,32.29
2022-08-26T16:49:14.394Z,32.18
2022-08-26T16:51:42.420Z,32.12
2022-08-26T16:54:10.475Z,32.13
2022-08-26T16:56:39.158Z,32.58
2022-08-26T16:59:11.637Z,32.86
2022-08-26T17:01:42.903Z,33.21
2022-08-26T17:04:10.913Z,33.82
2022-08-26T17:06:38.899Z,34.06
2022-08-26T17:09:07.520Z,34.54
2022-08-26T17:11:35.742Z,34.79
2022-08-26T17:14:04.904Z,35.41
2022-08-26T17:16:33.069Z,35.14
2022-08-26T17:19:02.942Z,35.77
2022-08-26T17:21:36.714Z,36.06
2022-08-26T17:24:06.094Z,35.88
2022-08-26T17:26:34.790Z,35.61
2022-08-26T17:29:02.880Z,36.06
2022-08-26T17:31:32.791Z,37.00
2022-08-26T17:34:00.911Z,36.49
2022-08-26T17:36:29.120Z,36.83
2022-08-26T17:38:58.638Z,36.96
2022-08-26T17:41:27.391Z,37.90
2022-08-26T17:43:56.244Z,38.71
2022-08-26T17:46:24.760Z,39.29
2022-08-26T17:48:55.813Z,40.18
2022-08-26T17:51:24.605Z,39.57
2022-08-26T17:53:54.050Z,40.04
2022-08-26T17:56:29.360Z,40.40
2022-08-26T17:59:02.504Z,40.93
2022-08-26T18:01:32.190Z,41.20
2022-08-26T18:04:01.045Z,41.29
2022-08-26T18:06:30.901Z,41.95
2022-08-26T18:09:00.649Z,42.14
2022-08-26T18:11:30.043Z,42.80
2022-08-26T18:13:59.269Z,42.51
2022-08-26T18:16:30.230Z,43.17
2022-08-26T18:18:59.658Z,43.36
2022-08-26T18:21:28.136Z,44.06
2022-08-26T18:23:56.493Z,43.98
2022-08-26T18:26:28.533Z,44.67
2022-08-26T18:28:57.690Z,44.78
2022-08-26T18:31:26.828Z,44.53
2022-08-26T18:33:55.083Z,44.83
2022-08-26T18:36:26.883Z,44.89
2022-08-26T18:38:56.192Z,45.22
2022-08-26T18:41:26.447Z,45.57
2022-08-26T18:43:55.822Z,45.89
2022-08-26T18:46:26.269Z,45.96
2022-08-26T18:48:56.250Z,45.21
2022-08-26T18:51:29.738Z,44.55
2022-08-26T18:53:59.216Z,43.61
2022-08-26T18:56:28.773Z,43.55
2022-08-26T18:58:56.902Z,43.67
2022-08-26T19:01:27.695Z,43.42
2022-08-26T19:03:58.447Z,43.27
2022-08-26T19:06:28.677Z,43.68
2022-08-26T19:08:57.946Z,43.84
2022-08-26T19:11:31.672Z,44.26
2022-08-26T19:14:10.897Z,44.48
2022-08-26T19:16:39.207Z,44.64
2022-08-26T19:19:08.072Z,44.66
2022-08-26T19:21:38.284Z,44.95
2022-08-26T19:24:15.526Z,45.10
2022-08-26T19:26:45.951Z,45.15
2022-08-26T19:29:15.697Z,45.14
2022-08-26T19:31:44.161Z,45.15
2022-08-26T19:34:18.311Z,45.08
2022-08-26T19:36:49.416Z,45.03
2022-08-26T19:39:17.522Z,45.32
2022-08-26T19:41:45.837Z,45.44
2022-08-26T19:44:36.422Z,45.92
2022-08-26T19:47:07.314Z,46.49
2022-08-26T19:49:36.516Z,46.57
2022-08-26T19:52:06.538Z,46.66
2022-08-26T19:54:36.294Z,46.73
2022-08-26T19:57:04.916Z,47.02
2022-08-26T19:59:33.235Z,47.14
2022-08-26T20:02:02.227Z,47.61
2022-08-26T20:04:31.851Z,47.70
2022-08-26T20:07:01.315Z,47.98
2022-08-26T20:09:34.206Z,48.10
2022-08-26T20:12:03.253Z,48.10
2022-08-26T20:14:31.564Z,48.51
2022-08-26T20:17:01.484Z,48.66
2022-08-26T20:19:48.133Z,48.51
2022-08-26T20:22:17.154Z,48.80
2022-08-26T20:24:46.258Z,48.88
2022-08-26T20:27:15.636Z,48.70
2022-08-26T20:29:44.005Z,49.07
2022-08-26T20:32:12.318Z,49.10
2022-08-26T20:34:40.483Z,49.22
2022-08-26T20:37:08.582Z,49.09
2022-08-26T20:39:36.862Z,49.30
2022-08-26T20:42:06.913Z,49.38
2022-08-26T20:44:54.843Z,49.59
2022-08-26T20:47:23.423Z,49.42
2022-08-26T20:49:52.461Z,49.42
2022-08-26T20:52:20.892Z,49.58
2022-08-26T20:54:48.981Z,49.63
2022-08-26T20:57:17.062Z,49.54
2022-08-26T20:59:45.053Z,49.66
2022-08-26T21:02:13.057Z,50.18
2022-08-26T21:04:41.230Z,50.07
2022-08-26T21:07:09.278Z,50.09
2022-08-26T21:09:37.347Z,50.43
2022-08-26T21:12:06.629Z,50.63
2022-08-26T21:14:34.679Z,50.73
2022-08-26T21:17:02.824Z,50.76
2022-08-26T21:19:31.161Z,51.01
2022-08-26T21:21:59.663Z,51.09
2022-08-26T21:24:27.757Z,51.14
2022-08-26T21:26:55.727Z,50.93
2022-08-26T21:29:23.790Z,50.91
2022-08-26T21:31:51.890Z,50.59
2022-08-26T21:34:20.095Z,50.69
2022-08-26T21:36:49.635Z,50.58
2022-08-26T21:39:17.869Z,50.70
2022-08-26T21:41:47.356Z,50.26
2022-08-26T21:44:17.206Z,50.28
2022-08-26T21:46:46.602Z,50.18
2022-08-26T21:49:16.103Z,50.13
2022-08-26T21:51:47.529Z,50.16
2022-08-26T21:54:18.188Z,50.29
2022-08-26T21:56:47.431Z,50.30
2022-08-26T21:59:18.377Z,50.76
2022-08-26T22:01:47.830Z,50.75
2022-08-26T22:04:16.574Z,50.75
2022-08-26T22:06:49.928Z,51.04
2022-08-26T22:09:25.279Z,51.04
2022-08-26T22:11:56.936Z,50.91
2022-08-26T22:14:30.395Z,50.94
2022-08-26T22:16:59.997Z,51.13
2022-08-26T22:19:31.905Z,51.27
2022-08-26T22:22:03.753Z,51.45
2022-08-26T22:24:31.720Z,51.70
2022-08-26T22:26:59.740Z,51.51
2022-08-26T22:29:27.852Z,51.86
2022-08-26T22:31:57.297Z,51.87
2022-08-26T22:34:25.713Z,51.96
2022-08-26T22:36:54.246Z,52.02
2022-08-26T22:39:25.386Z,52.12
2022-08-26T22:41:54.620Z,52.28
2022-08-26T22:44:22.724Z,52.42
2022-08-26T22:46:54.305Z,52.45
2022-08-26T22:49:23.822Z,52.54
2022-08-26T22:51:51.870Z,52.47
2022-08-26T22:54:20.009Z,52.53
2022-08-26T22:56:48.802Z,52.89
2022-08-26T22:59:16.970Z,52.87
2022-08-26T23:01:46.945Z,53.22
2022-08-26T23:04:15.177Z,53.12
2022-08-26T23:06:47.546Z,52.85
2022-08-26T23:09:18.601Z,53.16
2022-08-26T23:11:48.625Z,53.35
2022-08-26T23:14:18.765Z,53.39
2022-08-26T23:16:47.738Z,53.24
2022-08-26T23:19:19.111Z,53.35
2022-08-26T23:21:49.701Z,53.32
2022-08-26T23:24:18.528Z,53.73
2022-08-26T23:26:47.121Z,53.80
2022-08-26T23:29:16.124Z,54.09
2022-08-26T23:31:44.966Z,54.20
2022-08-26T23:34:33.271Z,54.42
2022-08-26T23:37:02.171Z,54.49
2022-08-26T23:39:36.336Z,54.75
2022-08-26T23:42:06.257Z,54.66
2022-08-26T23:44:35.103Z,54.89
2022-08-26T23:47:03.660Z,54.87
2022-08-26T23:49:32.882Z,54.97
2022-08-26T23:52:19.680Z,55.12
2022-08-26T23:54:48.783Z,55.25
2022-08-26T23:57:18.822Z,55.42
2022-08-26T23:59:48.714Z,55.54
